createdAt,value
2024-02-20T00:00:13.141Z,100254.91
2024-02-20T00:02:42.546Z,100246.38
2024-02-20T00:05:11.196Z,100251.41
2024-02-20T00:07:39.952Z,100258.03
2024-02-20T00:10:09.196Z,100254.50
2024-02-20T00:12:39.271Z,100247.00
2024-02-20T00:15:08.939Z,100261.53
2024-02-20T00:17:37.379Z,100258.22
2024-02-20T00:20:07.068Z,100256.53
2024-02-20T00:22:36.264Z,100258.34
2024-02-20T00:25:05.328Z,100250.69
2024-02-20T00:27:33.887Z,100257.38
2024-02-20T00:30:05.282Z,100251.41
2024-02-20T00:32:33.672Z,100245.47
2024-02-20T00:35:02.118Z,100250.50
2024-02-20T00:37:31.696Z,100246.25
2024-02-20T00:40:00.318Z,100251.28
2024-02-20T00:42:29.399Z,100252.88
2024-02-20T00:44:57.986Z,100245.03
2024-02-20T00:47:28.857Z,100248.16
2024-02-20T00:49:57.533Z,100245.41
2024-02-20T00:52:26.368Z,100252.88
2024-02-20T00:54:54.918Z,100251.75
2024-02-20T00:57:23.336Z,100245.56
2024-02-20T00:59:52.133Z,100248.84
2024-02-20T01:02:20.592Z,100248.84
2024-02-20T01:04:50.444Z,100247.81
2024-02-20T01:07:18.990Z,100242.66
2024-02-20T01:09:47.345Z,100245.19
2024-02-20T01:12:15.804Z,100239.19
2024-02-20T01:14:45.729Z,100227.31
2024-02-20T01:17:14.090Z,100235.97
2024-02-20T01:19:42.512Z,100230.31
2024-02-20T01:22:13.069Z,100232.88
2024-02-20T01:24:41.649Z,100234.50
2024-02-20T01:27:10.036Z,100231.00
2024-02-20T01:29:38.427Z,100225.69
2024-02-20T01:32:07.305Z,100221.31
2024-02-20T01:34:35.834Z,100235.44
2024-02-20T01:37:04.699Z,100228.50
2024-02-20T01:39:34.946Z,100230.75
2024-02-20T01:42:04.333Z,100228.84
2024-02-20T01:44:33.594Z,100224.50
2024-02-20T01:47:02.637Z,100228.50
2024-02-20T01:49:31.247Z,100223.97
2024-02-20T01:52:01.056Z,100219.41
2024-02-20T01:54:29.515Z,100217.63
2024-02-20T01:56:59.740Z,100207.50
2024-02-20T01:59:28.249Z,100211.75
2024-02-20T02:01:56.706Z,100209.06
2024-02-20T02:04:25.586Z,100208.06
2024-02-20T02:06:54.047Z,100211.44
2024-02-20T02:09:22.588Z,100206.19
2024-02-20T02:11:50.925Z,100206.13
2024-02-20T02:14:20.732Z,100205.38
2024-02-20T02:16:49.135Z,100205.44
2024-02-20T02:19:17.637Z,100204.69
2024-02-20T02:21:46.519Z,100199.72
2024-02-20T02:24:14.884Z,100202.22
2024-02-20T02:26:44.952Z,100190.34
2024-02-20T02:29:13.823Z,100188.69
2024-02-20T02:31:42.326Z,100196.19
2024-02-20T02:34:10.791Z,100202.16
2024-02-20T02:36:39.330Z,100203.00
2024-02-20T02:39:09.095Z,100206.31
2024-02-20T02:41:37.532Z,100207.03
2024-02-20T02:44:08.182Z,100204.41
2024-02-20T02:46:36.610Z,100199.16
2024-02-20T02:49:06.895Z,100197.31
2024-02-20T02:51:35.421Z,100201.38
2024-02-20T02:54:04.206Z,100205.34
2024-02-20T02:56:32.797Z,100212.50
2024-02-20T02:59:01.417Z,100211.34
2024-02-20T03:01:31.769Z,100213.63
2024-02-20T03:04:01.541Z,100206.78
2024-02-20T03:06:30.112Z,100202.59
2024-02-20T03:08:58.542Z,100204.31
2024-02-20T03:11:26.921Z,100199.38
2024-02-20T03:13:55.838Z,100199.47
2024-02-20T03:16:25.962Z,100202.72
2024-02-20T03:18:55.915Z,100200.88
2024-02-20T03:21:25.824Z,100200.81
2024-02-20T03:23:54.228Z,100201.59
2024-02-20T03:26:22.570Z,100194.97
2024-02-20T03:28:51.725Z,100201.75
2024-02-20T03:31:20.374Z,100211.09
2024-02-20T03:33:49.119Z,100204.31
2024-02-20T03:36:19.076Z,100212.59
2024-02-20T03:38:48.149Z,100212.72
2024-02-20T03:41:17.483Z,100211.28
2024-02-20T03:43:45.971Z,100221.59
2024-02-20T03:46:14.429Z,100221.78
2024-02-20T03:48:43.358Z,100218.47
2024-02-20T03:51:12.002Z,100225.16
2024-02-20T03:53:41.998Z,100228.63
2024-02-20T03:56:13.309Z,100232.13
2024-02-20T03:58:41.847Z,100236.16
2024-02-20T04:01:11.292Z,100237.50
2024-02-20T04:03:39.861Z,100233.31
2024-02-20T04:06:09.836Z,100235.19
2024-02-20T04:08:38.439Z,100237.97
2024-02-20T04:11:08.407Z,100242.22
2024-02-20T04:13:36.959Z,100245.53
2024-02-20T04:16:06.427Z,100253.84
2024-02-20T04:18:35.319Z,100251.34
2024-02-20T04:21:03.694Z,100255.75
2024-02-20T04:23:32.148Z,100249.09
2024-02-20T04:26:00.624Z,100258.50
2024-02-20T04:28:36.574Z,100247.56
2024-02-20T04:31:05.546Z,100248.44
2024-02-20T04:33:34.092Z,100248.28
2024-02-20T04:36:02.532Z,100236.53
2024-02-20T04:38:30.896Z,100243.50
2024-02-20T04:40:59.312Z,100236.81
2024-02-20T04:43:27.885Z,100244.31
2024-02-20T04:45:57.800Z,100243.53
2024-02-20T04:48:26.303Z,100241.75
2024-02-20T04:50:55.000Z,100233.94
2024-02-20T04:53:23.493Z,100243.13
2024-02-20T04:55:51.866Z,100242.41
2024-02-20T04:58:20.446Z,100249.31
2024-02-20T05:00:49.735Z,100241.88
2024-02-20T05:03:19.794Z,100236.06
2024-02-20T05:05:48.273Z,100240.28
2024-02-20T05:08:16.942Z,100238.47
2024-02-20T05:10:45.492Z,100248.53
2024-02-20T05:13:13.915Z,100251.13
2024-02-20T05:15:42.763Z,100250.22
2024-02-20T05:18:11.123Z,100253.38
2024-02-20T05:20:40.951Z,100255.03
2024-02-20T05:23:09.752Z,100255.88
2024-02-20T05:25:38.209Z,100256.66
2024-02-20T05:28:06.867Z,100257.28
2024-02-20T05:30:35.896Z,100249.38
2024-02-20T05:33:04.685Z,100255.97
2024-02-20T05:35:35.211Z,100251.69
2024-02-20T05:38:07.947Z,100257.34
2024-02-20T05:40:36.472Z,100253.75
2024-02-20T05:43:04.903Z,100264.31
2024-02-20T05:45:34.864Z,100262.75
2024-02-20T05:48:03.980Z,100251.69
2024-02-20T05:50:33.038Z,100250.94
2024-02-20T05:53:08.020Z,100259.34
2024-02-20T05:55:37.984Z,100262.91
2024-02-20T05:58:06.621Z,100254.72
2024-02-20T06:00:35.051Z,100253.00
2024-02-20T06:03:03.471Z,100244.63
2024-02-20T06:05:32.024Z,100254.03
2024-02-20T06:08:01.312Z,100254.81
2024-02-20T06:10:29.796Z,100266.63
2024-02-20T06:12:59.611Z,100275.34
2024-02-20T06:15:28.204Z,100267.25
2024-02-20T06:17:56.602Z,100275.84
2024-02-20T06:20:25.443Z,100281.13
2024-02-20T06:22:53.883Z,100283.06
2024-02-20T06:25:22.366Z,100291.16
2024-02-20T06:27:51.764Z,100295.66
2024-02-20T06:30:23.391Z,100303.78
2024-02-20T06:32:54.274Z,100305.66
2024-02-20T06:35:22.957Z,100302.19
2024-02-20T06:37:51.358Z,100303.81
2024-02-20T06:40:19.836Z,100299.13
2024-02-20T06:42:48.163Z,100299.44
2024-02-20T06:45:16.696Z,100310.47
2024-02-20T06:47:46.446Z,100315.69
2024-02-20T06:50:14.952Z,100320.81
2024-02-20T06:52:44.948Z,100316.59
2024-02-20T06:55:13.877Z,100321.75
2024-02-20T06:57:42.236Z,100321.13
2024-02-20T07:00:13.565Z,100320.41
2024-02-20T07:02:43.233Z,100318.84
2024-02-20T07:05:13.861Z,100327.34
2024-02-20T07:07:42.602Z,100327.47
2024-02-20T07:10:11.866Z,100328.31
2024-02-20T07:12:40.307Z,100327.47
2024-02-20T07:15:08.962Z,100330.88
2024-02-20T07:17:38.488Z,100324.47
2024-02-20T07:20:08.067Z,100328.06
2024-02-20T07:22:38.201Z,100325.22
2024-02-20T07:25:07.426Z,100315.66
2024-02-20T07:27:35.792Z,100319.53
2024-02-20T07:30:04.911Z,100311.78
2024-02-20T07:32:33.195Z,100321.66
2024-02-20T07:35:01.742Z,100327.97
2024-02-20T07:37:30.313Z,100325.09
2024-02-20T07:40:00.606Z,100332.09
2024-02-20T07:42:29.021Z,100335.75
2024-02-20T07:44:57.336Z,100333.41
2024-02-20T07:47:26.534Z,100328.63
2024-02-20T07:49:55.080Z,100331.41
2024-02-20T07:52:24.017Z,100336.47
2024-02-20T07:54:52.345Z,100335.63
2024-02-20T07:57:22.461Z,100337.34
2024-02-20T07:59:50.823Z,100340.69
2024-02-20T08:02:19.198Z,100340.59
2024-02-20T08:04:47.859Z,100343.13
2024-02-20T08:07:16.368Z,100344.00
2024-02-20T08:09:45.363Z,100341.59
2024-02-20T08:12:13.737Z,100345.94
2024-02-20T08:14:46.008Z,100355.31
2024-02-20T08:17:15.953Z,100347.00
2024-02-20T08:19:44.309Z,100354.72
2024-02-20T08:22:14.706Z,100359.00
2024-02-20T08:24:46.206Z,100353.06
2024-02-20T08:27:15.765Z,100350.56
2024-02-20T08:29:45.931Z,100350.66
2024-02-20T08:32:14.425Z,100348.22
2024-02-20T08:34:42.832Z,100342.31
2024-02-20T08:37:11.302Z,100335.59
2024-02-20T08:39:39.719Z,100336.63
2024-02-20T08:42:08.131Z,100337.66
2024-02-20T08:44:36.496Z,100343.72
2024-02-20T08:47:06.371Z,100344.88
2024-02-20T08:49:34.972Z,100345.22
2024-02-20T08:52:04.048Z,100337.31
2024-02-20T08:54:32.468Z,100336.88
2024-02-20T08:57:00.918Z,100333.78
2024-02-20T08:59:29.342Z,100335.75
2024-02-20T09:01:58.186Z,100318.09
2024-02-20T09:04:29.620Z,100339.59
2024-02-20T09:07:00.051Z,100342.09
2024-02-20T09:09:28.634Z,100342.13
2024-02-20T09:11:59.794Z,100342.13
2024-02-20T09:14:30.229Z,100338.91
2024-02-20T09:16:58.523Z,100343.31
2024-02-20T09:19:28.430Z,100340.22
2024-02-20T09:21:57.092Z,100347.91
2024-02-20T09:24:25.470Z,100340.97
2024-02-20T09:26:53.844Z,100341.72
2024-02-20T09:29:23.147Z,100339.91
2024-02-20T09:31:54.580Z,100340.63
2024-02-20T09:34:24.158Z,100343.22
2024-02-20T09:36:54.393Z,100346.72
2024-02-20T09:39:23.750Z,100351.06
2024-02-20T09:41:52.482Z,100343.44
2024-02-20T09:44:22.061Z,100353.75
2024-02-20T09:46:54.806Z,100350.47
2024-02-20T09:49:25.166Z,100347.97
2024-02-20T09:51:55.613Z,100355.63
2024-02-20T09:54:25.328Z,100349.69
2024-02-20T09:56:57.882Z,100344.69
2024-02-20T09:59:26.808Z,100344.88
2024-02-20T10:01:55.762Z,100338.19
2024-02-20T10:04:25.122Z,100335.81
2024-02-20T10:06:55.205Z,100331.66
2024-02-20T10:09:24.006Z,100339.38
2024-02-20T10:11:52.409Z,100336.84
2024-02-20T10:14:28.396Z,100332.63
2024-02-20T10:17:00.416Z,100326.69
2024-02-20T10:19:29.022Z,100324.97
2024-02-20T10:22:01.346Z,100322.44
2024-02-20T10:24:38.056Z,100328.41
2024-02-20T10:27:07.599Z,100321.59
2024-02-20T10:29:35.949Z,100324.16
2024-02-20T10:32:04.426Z,100316.44
2024-02-20T10:34:32.868Z,100318.16
2024-02-20T10:37:08.808Z,100315.56
2024-02-20T10:39:37.522Z,100311.31
2024-02-20T10:42:08.379Z,100313.84
2024-02-20T10:44:37.602Z,100307.06
2024-02-20T10:47:07.137Z,100309.63
2024-02-20T10:49:36.251Z,100303.66
2024-02-20T10:52:05.559Z,100307.91
2024-02-20T10:54:43.376Z,100306.22
2024-02-20T10:57:16.584Z,100299.38
2024-02-20T10:59:45.831Z,100292.53
2024-02-20T11:02:15.406Z,100290.84
2024-02-20T11:04:44.106Z,100288.25
2024-02-20T11:07:12.883Z,100287.41
2024-02-20T11:09:42.837Z,100283.97
2024-02-20T11:12:11.552Z,100278.84
2024-02-20T11:14:40.051Z,100273.72
2024-02-20T11:17:24.227Z,100278.78
2024-02-20T11:20:06.943Z,100272.00
2024-02-20T11:22:35.848Z,100269.44
2024-02-20T11:25:12.296Z,100273.72
2024-02-20T11:27:44.959Z,100265.16
2024-02-20T11:30:18.805Z,100272.03
2024-02-20T11:32:47.714Z,100275.44
2024-02-20T11:35:23.979Z,100276.28
2024-02-20T11:37:55.808Z,100264.25
2024-02-20T11:40:27.092Z,100263.31
2024-02-20T11:42:57.110Z,100261.44
2024-02-20T11:45:27.198Z,100253.75
2024-02-20T11:48:02.275Z,100259.84
2024-02-20T11:50:31.287Z,100259.94
2024-02-20T11:53:04.791Z,100257.47
2024-02-20T11:55:35.115Z,100256.66
2024-02-20T11:58:05.747Z,100257.53
2024-02-20T12:00:35.219Z,100258.41
2024-02-20T12:03:03.991Z,100252.44
2024-02-20T12:05:38.909Z,100254.09
2024-02-20T12:08:13.110Z,100248.97
2024-02-20T12:10:43.615Z,100248.13
2024-02-20T12:13:15.699Z,100251.53
2024-02-20T12:15:45.883Z,100248.13
2024-02-20T12:18:24.399Z,100243.00
2024-02-20T12:20:52.833Z,100242.16
2024-02-20T12:23:21.889Z,100237.88
2024-02-20T12:25:51.750Z,100235.31
2024-02-20T12:28:20.255Z,100244.69
2024-02-20T12:30:50.960Z,100235.31
2024-02-20T12:33:19.490Z,100226.78
2024-02-20T12:35:47.849Z,100229.34
2024-02-20T12:38:16.303Z,100232.75
2024-02-20T12:40:44.728Z,100223.41
2024-02-20T12:43:15.691Z,100228.50
2024-02-20T12:45:44.220Z,100235.31
2024-02-20T12:48:12.634Z,100231.06
2024-02-20T12:50:41.143Z,100236.16
2024-02-20T12:53:09.777Z,100229.25
2024-02-20T12:55:39.049Z,100230.97
2024-02-20T12:58:07.487Z,100236.09
2024-02-20T13:00:37.455Z,100235.22
2024-02-20T13:03:07.000Z,100237.78
2024-02-20T13:05:35.993Z,100231.78
2024-02-20T13:08:05.921Z,100234.31
2024-02-20T13:10:35.520Z,100229.16
2024-02-20T13:13:04.776Z,100229.16
2024-02-20T13:15:34.059Z,100224.88
2024-02-20T13:18:04.393Z,100233.41
2024-02-20T13:20:35.137Z,100232.56
2024-02-20T13:23:04.584Z,100229.97
2024-02-20T13:25:33.071Z,100228.25
2024-02-20T13:28:01.719Z,100225.72
2024-02-20T13:30:30.237Z,100212.06
2024-02-20T13:32:58.729Z,100210.34
2024-02-20T13:35:28.596Z,100215.50
2024-02-20T13:37:57.116Z,100212.09
2024-02-20T13:40:25.553Z,100210.41
2024-02-20T13:42:56.021Z,100211.25
2024-02-20T13:45:25.980Z,100212.97
2024-02-20T13:47:54.514Z,100213.81
2024-02-20T13:50:23.964Z,100216.31
2024-02-20T13:52:54.699Z,100210.38
2024-02-20T13:55:23.164Z,100216.31
2024-02-20T13:57:51.731Z,100220.59
2024-02-20T14:00:20.663Z,100222.31
2024-02-20T14:02:48.988Z,100222.31
2024-02-20T14:05:18.704Z,100222.28
2024-02-20T14:07:47.431Z,100225.72
2024-02-20T14:10:18.751Z,100222.28
2024-02-20T14:12:47.377Z,100225.66
2024-02-20T14:15:14.715Z,100229.91
2024-02-20T14:17:43.096Z,100231.66
2024-02-20T14:20:12.339Z,100228.38
2024-02-20T14:22:40.749Z,100227.59
2024-02-20T14:25:09.526Z,100224.22
2024-02-20T14:27:39.422Z,100230.16
2024-02-20T14:30:08.788Z,100234.47
2024-02-20T14:32:37.288Z,100227.63
2024-02-20T14:35:06.251Z,100232.75
2024-02-20T14:37:36.149Z,100233.56
2024-02-20T14:40:06.273Z,100231.03
2024-02-20T14:42:34.700Z,100228.47
2024-02-20T14:45:06.247Z,100227.63
2024-02-20T14:47:34.702Z,100229.34
2024-02-20T14:50:03.200Z,100233.63
2024-02-20T14:52:31.952Z,100232.75
2024-02-20T14:55:00.330Z,100228.47
2024-02-20T14:57:28.874Z,100237.84
2024-02-20T14:59:57.301Z,100226.72
2024-02-20T15:02:27.121Z,100232.69
2024-02-20T15:04:55.628Z,100234.38
2024-02-20T15:07:24.166Z,100229.22
2024-02-20T15:09:52.692Z,100232.63
2024-02-20T15:12:22.055Z,100245.41
2024-02-20T15:14:50.885Z,100235.97
2024-02-20T15:17:20.949Z,100230.00
2024-02-20T15:19:52.535Z,100235.91
2024-02-20T15:22:21.332Z,100239.31
2024-02-20T15:24:49.894Z,100242.66
2024-02-20T15:27:19.811Z,100243.50
2024-02-20T15:29:48.318Z,100240.91
2024-02-20T15:32:17.124Z,100249.41
2024-02-20T15:34:46.787Z,100243.41
2024-02-20T15:37:16.972Z,100245.91
2024-02-20T15:39:45.453Z,100253.50
2024-02-20T15:42:13.834Z,100256.88
2024-02-20T15:44:44.354Z,100253.41
2024-02-20T15:47:13.056Z,100246.50
2024-02-20T15:49:44.368Z,100248.13
2024-02-20T15:52:13.571Z,100245.50
2024-02-20T15:54:43.423Z,100247.94
2024-02-20T15:57:11.829Z,100257.25
2024-02-20T15:59:40.171Z,100247.00
2024-02-20T16:02:08.617Z,100256.31
2024-02-20T16:04:37.125Z,100258.84
2024-02-20T16:07:05.785Z,100254.66
2024-02-20T16:09:34.165Z,100249.56
2024-02-20T16:12:04.670Z,100252.13
2024-02-20T16:14:34.557Z,100258.03
2024-02-20T16:17:03.614Z,100253.75
2024-02-20T16:19:32.318Z,100264.75
2024-02-20T16:22:00.735Z,100284.25
2024-02-20T16:24:29.912Z,100294.44
2024-02-20T16:27:00.351Z,100307.13
2024-02-20T16:29:31.009Z,100310.34
2024-02-20T16:31:59.521Z,100297.47
2024-02-20T16:34:27.995Z,100305.81
2024-02-20T16:37:00.798Z,100303.16
2024-02-20T16:39:29.253Z,100299.72
2024-02-20T16:41:57.576Z,100298.81
2024-02-20T16:44:25.988Z,100309.00
2024-02-20T16:46:55.958Z,100312.38
2024-02-20T16:49:24.999Z,100312.31
2024-02-20T16:51:54.089Z,100325.91
2024-02-20T16:54:22.749Z,100319.91
2024-02-20T16:56:51.055Z,100326.56
2024-02-20T16:59:21.398Z,100332.50
2024-02-20T17:01:50.566Z,100338.38
2024-02-20T17:04:25.491Z,100330.66
2024-02-20T17:06:54.181Z,100326.34
2024-02-20T17:09:22.576Z,100325.44
2024-02-20T17:11:52.086Z,100318.63
2024-02-20T17:14:20.839Z,100324.53
2024-02-20T17:16:52.420Z,100333.84
2024-02-20T17:19:22.631Z,100330.34
2024-02-20T17:21:51.157Z,100331.97
2024-02-20T17:24:19.456Z,100333.66
2024-02-20T17:26:50.304Z,100339.53
2024-02-20T17:29:20.133Z,100347.16
2024-02-20T17:31:48.745Z,100345.28
2024-02-20T17:34:17.246Z,100345.16
2024-02-20T17:36:47.358Z,100351.09
2024-02-20T17:39:16.334Z,100348.47
2024-02-20T17:41:44.820Z,100357.00
2024-02-20T17:44:13.348Z,100358.66
2024-02-20T17:46:41.806Z,100358.59
2024-02-20T17:49:11.121Z,100367.84
2024-02-20T17:51:42.250Z,100367.84
2024-02-20T17:54:14.007Z,100360.19
2024-02-20T17:56:46.708Z,100366.94
2024-02-20T17:59:15.889Z,100366.06
2024-02-20T18:01:45.222Z,100355.81
2024-02-20T18:04:14.132Z,100354.81
2024-02-20T18:06:43.064Z,100348.84
2024-02-20T18:09:13.558Z,100352.19
2024-02-20T18:11:42.310Z,100349.50
2024-02-20T18:14:14.075Z,100354.44
2024-02-20T18:16:43.345Z,100361.84
2024-02-20T18:19:15.406Z,100364.97
2024-02-20T18:21:44.391Z,100368.22
2024-02-20T18:24:17.667Z,100368.97
2024-02-20T18:26:46.410Z,100375.66
2024-02-20T18:29:20.409Z,100372.16
2024-02-20T18:31:49.354Z,100370.22
2024-02-20T18:34:18.237Z,100372.59
2024-02-20T18:36:47.096Z,100370.66
2024-02-20T18:39:16.125Z,100369.69
2024-02-20T18:41:49.967Z,100369.66
2024-02-20T18:44:18.876Z,100365.38
2024-02-20T18:46:47.846Z,100372.88
2024-02-20T18:49:16.852Z,100370.94
2024-02-20T18:51:45.689Z,100369.97
2024-02-20T18:54:14.681Z,100374.94
2024-02-20T18:56:43.354Z,100362.28
2024-02-20T18:59:13.501Z,100362.34
2024-02-20T19:01:42.480Z,100368.41
2024-02-20T19:04:11.471Z,100371.03
2024-02-20T19:06:43.330Z,100369.38
2024-02-20T19:09:13.406Z,100383.81
2024-02-20T19:11:44.940Z,100379.63
2024-02-20T19:14:16.686Z,100384.81
2024-02-20T19:16:45.701Z,100388.31
2024-02-20T19:19:14.870Z,100390.16
2024-02-20T19:21:43.645Z,100384.38
2024-02-20T19:24:12.859Z,100391.25
2024-02-20T19:26:42.605Z,100387.97
2024-02-20T19:29:11.532Z,100398.25
2024-02-20T19:31:41.816Z,100402.53
2024-02-20T19:34:10.570Z,100410.19
2024-02-20T19:36:40.235Z,100418.75
2024-02-20T19:39:10.001Z,100429.84
2024-02-20T19:41:40.262Z,100433.22
2024-02-20T19:44:09.325Z,100444.25
2024-02-20T19:46:38.623Z,100449.34
2024-02-20T19:49:08.874Z,100455.19
2024-02-20T19:51:37.902Z,100456.69
2024-02-20T19:54:06.291Z,100453.13
2024-02-20T19:56:39.896Z,100445.38
2024-02-20T19:59:08.293Z,100446.13
2024-02-20T20:01:39.671Z,100435.88
2024-02-20T20:04:09.535Z,100424.78
2024-02-20T20:06:42.366Z,100429.91
2024-02-20T20:09:13.436Z,100419.69
2024-02-20T20:11:41.948Z,100423.00
2024-02-20T20:14:10.618Z,100415.38
2024-02-20T20:16:39.569Z,100422.91
2024-02-20T20:19:10.149Z,100415.19
2024-02-20T20:21:39.014Z,100415.06
2024-02-20T20:24:14.576Z,100418.41
2024-02-20T20:26:46.970Z,100412.53
2024-02-20T20:29:15.600Z,100414.22
2024-02-20T20:31:44.520Z,100410.69
2024-02-20T20:34:14.484Z,100411.41
2024-02-20T20:36:44.792Z,100418.13
2024-02-20T20:39:13.341Z,100422.22
2024-02-20T20:41:42.405Z,100422.97
2024-02-20T20:44:11.057Z,100424.53
2024-02-20T20:46:39.670Z,100429.63
2024-02-20T20:49:08.595Z,100424.47
2024-02-20T20:51:38.395Z,100419.25
2024-02-20T20:54:07.049Z,100419.19
2024-02-20T20:56:35.421Z,100418.28
2024-02-20T20:59:04.258Z,100412.31
2024-02-20T21:01:33.371Z,100413.16
2024-02-20T21:04:04.574Z,100414.00
2024-02-20T21:06:34.983Z,100417.38
2024-02-20T21:09:04.909Z,100415.66
2024-02-20T21:11:35.186Z,100422.38
2024-02-20T21:14:03.826Z,100419.84
2024-02-20T21:16:33.794Z,100416.28
2024-02-20T21:19:02.417Z,100423.88
2024-02-20T21:21:30.816Z,100417.00
2024-02-20T21:24:01.399Z,100417.06
2024-02-20T21:26:31.212Z,100419.59
2024-02-20T21:28:59.620Z,100416.28
2024-02-20T21:31:28.062Z,100414.53
2024-02-20T21:33:56.573Z,100410.34
2024-02-20T21:36:25.099Z,100412.88
2024-02-20T21:38:53.439Z,100410.34
2024-02-20T21:41:21.854Z,100415.50
2024-02-20T21:43:51.858Z,100411.34
2024-02-20T21:46:20.515Z,100408.78
2024-02-20T21:48:50.722Z,100410.34
2024-02-20T21:51:19.484Z,100409.38
2024-02-20T21:53:47.958Z,100413.69
2024-02-20T21:56:17.192Z,100408.59
2024-02-20T21:58:46.224Z,100416.22
2024-02-20T22:01:16.650Z,100407.81
2024-02-20T22:03:45.842Z,100415.56
2024-02-20T22:06:14.213Z,100416.41
2024-02-20T22:08:42.739Z,100414.66
2024-02-20T22:11:11.200Z,100414.59
2024-02-20T22:13:40.869Z,100411.91
2024-02-20T22:16:09.460Z,100421.16
2024-02-20T22:18:39.849Z,100410.19
2024-02-20T22:21:08.314Z,100412.78
2024-02-20T22:23:36.700Z,100418.75
2024-02-20T22:26:06.357Z,100416.28
2024-02-20T22:28:37.370Z,100418.84
2024-02-20T22:31:05.996Z,100420.63
2024-02-20T22:33:34.441Z,100424.16
2024-02-20T22:36:04.497Z,100423.34
2024-02-20T22:38:34.302Z,100427.63
2024-02-20T22:41:02.792Z,100431.84
2024-02-20T22:43:31.339Z,100428.44
2024-02-20T22:45:59.811Z,100431.84
2024-02-20T22:48:28.342Z,100428.41
2024-02-20T22:50:56.690Z,100432.59
2024-02-20T22:53:28.274Z,100424.09
2024-02-20T22:55:57.162Z,100424.09
2024-02-20T22:58:25.631Z,100427.47
2024-02-20T23:00:54.528Z,100424.13
2024-02-20T23:03:22.880Z,100418.25
2024-02-20T23:05:51.630Z,100419.06
2024-02-20T23:08:20.098Z,100419.16
2024-02-20T23:10:50.195Z,100417.50
2024-02-20T23:13:18.786Z,100416.66
2024-02-20T23:15:47.250Z,100426.84
2024-02-20T23:18:15.739Z,100421.81
2024-02-20T23:20:44.095Z,100426.09
2024-02-20T23:23:12.571Z,100429.59
2024-02-20T23:25:41.349Z,100433.81
2024-02-20T23:28:11.344Z,100429.53
2024-02-20T23:30:39.747Z,100434.63
2024-02-20T23:33:08.311Z,100443.16
2024-02-20T23:35:36.641Z,100438.00
2024-02-20T23:38:05.246Z,100438.00
2024-02-20T23:40:33.559Z,100437.03
2024-02-20T23:43:02.160Z,100427.66
2024-02-20T23:45:31.878Z,100428.44
2024-02-20T23:48:00.589Z,100425.88
2024-02-20T23:50:29.026Z,100419.03
2024-02-20T23:52:57.655Z,100419.75
2024-02-20T23:55:26.028Z,100422.13
2024-02-20T23:57:54.456Z,100412.66
